Bratislava, Slovakia
Current Conditions -  °F | °C
As of 12:00 PM on Friday 24 Oct 2014 (Local Time) from LZIB Reporting Station
Few Clouds Few Clouds  
Wind Chill: 44°   Ceiling: Unl
Heat Index: 48°   Visibility: 6mi
Dew Point: 39°   Wind: 10mph
Humidity: 71%   Direction: 310°NW
Pressure: 30.09"   Gusts: NA
Location:  48.16°N, 17.13°E
Report Text: LZIB 241000Z 31009KT 9999 FEW020 09/04 Q1019 NOSIG
Loading
Personal Weather Stations






























Interactive Weather Map
Tropical Storm Tracking
New forecast layout! Learn more

10-Day Weather Forecast

Advertisements
Track Severe Weather on mobile